createdAt,value
2023-01-02T00:00:06.743Z,19.40
2023-01-02T00:02:33.569Z,16.42
2023-01-02T00:05:00.304Z,18.55
2023-01-02T00:07:27.016Z,16.80
2023-01-02T00:09:53.634Z,18.10
2023-01-02T00:12:20.283Z,20.00
2023-01-02T00:14:46.908Z,14.55
2023-01-02T00:17:13.701Z,13.98
2023-01-02T00:19:40.337Z,16.35
2023-01-02T00:22:07.002Z,13.32
2023-01-02T00:24:33.636Z,17.50
2023-01-02T00:27:00.308Z,12.38
2023-01-02T00:29:27.049Z,17.27
2023-01-02T00:31:53.799Z,12.73
2023-01-02T00:34:20.727Z,18.23
2023-01-02T00:36:47.509Z,17.23
2023-01-02T00:39:14.294Z,16.95
2023-01-02T00:41:41.000Z,13.57
2023-01-02T00:44:07.715Z,16.85
2023-01-02T00:46:34.538Z,14.63
2023-01-02T00:49:01.291Z,14.68
2023-01-02T00:51:28.016Z,16.27
2023-01-02T00:53:54.715Z,13.32
2023-01-02T00:56:21.385Z,14.52
2023-01-02T00:58:48.133Z,16.67
2023-01-02T01:01:15.084Z,17.27
2023-01-02T01:03:41.933Z,18.83
2023-01-02T01:06:18.630Z,12.80
2023-01-02T01:08:45.347Z,16.30
2023-01-02T01:11:14.403Z,18.10
2023-01-02T01:13:41.850Z,14.07
2023-01-02T01:16:14.752Z,13.00
2023-01-02T01:18:41.573Z,13.25
2023-01-02T01:21:16.520Z,12.48
2023-01-02T01:23:44.096Z,17.07
2023-01-02T01:26:12.820Z,13.88
2023-01-02T01:28:40.512Z,14.98
2023-01-02T01:31:14.890Z,16.40
2023-01-02T01:33:43.202Z,14.88
2023-01-02T01:36:15.911Z,13.98
2023-01-02T01:38:43.445Z,14.77
2023-01-02T01:41:12.852Z,13.00
2023-01-02T01:43:45.921Z,12.43
2023-01-02T01:46:35.580Z,18.63
2023-01-02T01:49:08.492Z,12.25
2023-01-02T01:51:38.663Z,11.70
2023-01-02T01:54:11.511Z,15.00
2023-01-02T01:56:43.399Z,16.58
2023-01-02T01:59:11.840Z,14.10
2023-01-02T02:01:41.483Z,14.30
2023-01-02T02:04:14.940Z,13.48
2023-01-02T02:06:42.037Z,14.50
2023-01-02T02:09:25.554Z,13.35
2023-01-02T02:11:55.122Z,13.63
2023-01-02T02:14:21.986Z,18.75
2023-01-02T02:16:58.493Z,11.85
2023-01-02T02:20:06.037Z,12.88
2023-01-02T02:23:10.100Z,14.05
2023-01-02T02:25:56.135Z,16.67
2023-01-02T02:28:39.031Z,14.63
2023-01-02T02:31:26.639Z,11.68
2023-01-02T02:34:25.580Z,14.70
2023-01-02T02:37:24.604Z,13.38
2023-01-02T02:40:09.919Z,13.90
2023-01-02T02:42:45.901Z,10.60
2023-01-02T02:45:27.160Z,14.20
2023-01-02T02:48:26.273Z,12.68
2023-01-02T02:51:05.726Z,13.57
2023-01-02T02:53:56.338Z,10.55
2023-01-02T02:56:24.926Z,12.90
2023-01-02T02:58:53.111Z,10.13
2023-01-02T03:01:21.244Z,11.05
2023-01-02T03:03:50.138Z,11.02
2023-01-02T03:06:16.788Z,13.00
2023-01-02T03:09:09.607Z,11.60
2023-01-02T03:12:18.119Z,15.88
2023-01-02T03:15:01.307Z,11.60
2023-01-02T03:17:41.678Z,10.73
2023-01-02T03:20:13.151Z,12.20
2023-01-02T03:22:44.453Z,12.93
2023-01-02T03:25:12.523Z,14.40
2023-01-02T03:27:44.329Z,14.00
2023-01-02T03:30:22.310Z,11.65
2023-01-02T03:33:14.458Z,12.13
2023-01-02T03:35:46.118Z,12.35
2023-01-02T03:38:35.826Z,12.20
2023-01-02T03:41:06.507Z,11.07
2023-01-02T03:43:37.341Z,13.07
2023-01-02T03:46:18.961Z,13.73
2023-01-02T03:48:56.011Z,10.98
2023-01-02T03:51:22.810Z,12.10
2023-01-02T03:53:49.665Z,12.38
2023-01-02T03:56:28.286Z,14.27
2023-01-02T03:59:15.544Z,13.13
2023-01-02T04:01:58.309Z,12.45
2023-01-02T04:04:50.484Z,13.75
2023-01-02T04:07:39.385Z,11.13
2023-01-02T04:10:08.331Z,12.18
2023-01-02T04:12:39.812Z,14.95
2023-01-02T04:15:10.465Z,14.75
2023-01-02T04:17:43.657Z,12.20
2023-01-02T04:20:27.983Z,13.77
2023-01-02T04:23:11.248Z,10.55
2023-01-02T04:26:00.685Z,12.70
2023-01-02T04:28:30.351Z,9.48
2023-01-02T04:31:19.521Z,10.68
2023-01-02T04:33:54.689Z,12.05
2023-01-02T04:36:21.580Z,12.27
2023-01-02T04:38:48.468Z,13.43
2023-01-02T04:41:21.124Z,11.98
2023-01-02T04:43:47.797Z,10.07
2023-01-02T04:46:14.501Z,13.43
2023-01-02T04:48:41.190Z,8.40
2023-01-02T04:51:07.863Z,14.10
2023-01-02T04:53:34.559Z,9.10
2023-01-02T04:56:01.480Z,11.07
2023-01-02T04:58:28.348Z,13.00
2023-01-02T05:00:55.330Z,12.18
2023-01-02T05:03:22.362Z,10.68
2023-01-02T05:05:49.110Z,11.57
2023-01-02T05:08:16.518Z,9.80
2023-01-02T05:10:43.574Z,11.20
2023-01-02T05:13:10.255Z,11.00
2023-01-02T05:15:37.016Z,11.48
2023-01-02T05:18:03.812Z,12.48
2023-01-02T05:20:30.598Z,11.63
2023-01-02T05:22:57.265Z,11.70
2023-01-02T05:25:25.520Z,11.48
2023-01-02T05:27:53.599Z,10.23
2023-01-02T05:30:21.167Z,13.35
2023-01-02T05:32:47.955Z,8.63
2023-01-02T05:35:15.148Z,10.48
2023-01-02T05:37:41.831Z,12.93
2023-01-02T05:40:09.148Z,12.10
2023-01-02T05:42:35.880Z,8.73
2023-01-02T05:45:02.925Z,11.00
2023-01-02T05:47:29.525Z,8.85
2023-01-02T05:49:56.406Z,11.77
2023-01-02T05:52:23.077Z,11.23
2023-01-02T05:54:49.770Z,11.80
2023-01-02T05:57:16.764Z,10.05
2023-01-02T05:59:43.398Z,9.23
2023-01-02T06:02:10.149Z,8.32
2023-01-02T06:04:37.043Z,7.90
2023-01-02T06:07:03.699Z,11.57
2023-01-02T06:09:30.382Z,9.38
2023-01-02T06:11:57.085Z,10.48
2023-01-02T06:14:24.078Z,12.40
2023-01-02T06:16:50.830Z,11.90
2023-01-02T06:19:17.504Z,12.40
2023-01-02T06:21:44.179Z,7.45
2023-01-02T06:24:10.948Z,9.45
2023-01-02T06:26:37.822Z,11.20
2023-01-02T06:29:04.522Z,9.68
2023-01-02T06:31:31.190Z,10.18
2023-01-02T06:34:00.219Z,9.13
2023-01-02T06:36:30.245Z,15.25
2023-01-02T06:38:57.666Z,10.85
2023-01-02T06:41:24.630Z,11.20
2023-01-02T06:43:52.178Z,10.43
2023-01-02T06:46:21.373Z,11.63
2023-01-02T06:48:48.548Z,10.15
2023-01-02T06:51:18.223Z,9.82
2023-01-02T06:53:45.172Z,6.22
2023-01-02T06:56:13.687Z,11.65
2023-01-02T06:58:40.336Z,8.00
2023-01-02T07:01:09.372Z,8.70
2023-01-02T07:03:36.544Z,9.10
2023-01-02T07:06:08.538Z,11.85
2023-01-02T07:08:36.563Z,8.85
2023-01-02T07:11:23.867Z,9.20
2023-01-02T07:13:52.966Z,8.55
2023-01-02T07:16:21.948Z,11.05
2023-01-02T07:18:49.152Z,10.02
2023-01-02T07:21:17.031Z,9.60
2023-01-02T07:23:44.142Z,12.73
2023-01-02T07:26:11.647Z,9.25
2023-01-02T07:28:38.934Z,10.40
2023-01-02T07:31:08.431Z,7.20
2023-01-02T07:33:35.845Z,8.52
2023-01-02T07:36:05.382Z,9.32
2023-01-02T07:38:32.993Z,11.13
2023-01-02T07:40:59.710Z,11.85
2023-01-02T07:43:26.441Z,10.32
2023-01-02T07:45:53.219Z,8.07
2023-01-02T07:48:20.201Z,11.23
2023-01-02T07:50:47.241Z,8.18
2023-01-02T07:53:14.099Z,10.15
2023-01-02T07:55:40.946Z,8.38
2023-01-02T07:58:07.824Z,6.93
2023-01-02T08:00:34.522Z,8.73
2023-01-02T08:03:02.038Z,8.93
2023-01-02T08:05:28.776Z,8.63
2023-01-02T08:07:55.478Z,10.45
2023-01-02T08:10:22.865Z,9.85
2023-01-02T08:12:49.569Z,9.73
2023-01-02T08:15:16.435Z,12.77
2023-01-02T08:17:43.546Z,8.88
2023-01-02T08:20:11.262Z,9.18
2023-01-02T08:22:51.602Z,8.07
2023-01-02T08:25:21.240Z,10.70
2023-01-02T08:27:49.035Z,8.95
2023-01-02T08:30:18.936Z,7.47
2023-01-02T08:32:48.810Z,8.02
2023-01-02T08:35:16.376Z,9.27
2023-01-02T08:37:50.599Z,9.48
2023-01-02T08:45:21.943Z,10.23
2023-01-02T08:51:14.077Z,8.85
2023-01-02T08:53:41.244Z,8.52
2023-01-02T08:56:27.722Z,11.70
2023-01-02T08:59:00.832Z,8.30
2023-01-02T09:01:29.593Z,9.80
2023-01-02T09:03:56.976Z,8.85
2023-01-02T09:06:26.665Z,13.70
2023-01-02T09:08:54.824Z,8.52
2023-01-02T09:11:24.749Z,9.45
2023-01-02T09:13:53.157Z,10.73
2023-01-02T09:16:23.381Z,10.98
2023-01-02T09:18:53.929Z,9.85
2023-01-02T09:21:21.856Z,9.95
2023-01-02T09:23:48.663Z,8.23
2023-01-02T09:26:17.843Z,7.78
2023-01-02T09:28:44.854Z,8.93
2023-01-02T09:31:15.237Z,7.20
2023-01-02T09:33:43.901Z,8.40
2023-01-02T09:36:13.796Z,12.65
2023-01-02T09:38:40.818Z,10.60
2023-01-02T09:41:26.322Z,7.80
2023-01-02T09:44:00.877Z,11.73
2023-01-02T09:46:40.220Z,9.27
2023-01-02T09:49:13.398Z,10.52
2023-01-02T09:51:40.733Z,10.32
2023-01-02T09:54:27.538Z,10.25
2023-01-02T09:57:15.777Z,10.63
2023-01-02T10:00:01.692Z,9.95
2023-01-02T10:02:31.207Z,9.38
2023-01-02T10:05:19.196Z,12.02
2023-01-02T10:08:13.609Z,13.07
2023-01-02T10:10:48.679Z,9.63
2023-01-02T10:13:44.188Z,11.05
2023-01-02T10:18:49.444Z,6.57
2023-01-02T10:21:22.765Z,11.55
2023-01-02T10:24:02.815Z,12.25
2023-01-02T10:26:44.247Z,8.98
2023-01-02T10:29:29.284Z,8.10
2023-01-02T10:32:04.172Z,10.20
2023-01-02T10:34:45.064Z,10.80
2023-01-02T10:37:17.140Z,7.97
2023-01-02T10:39:46.544Z,9.77
2023-01-02T10:42:15.848Z,7.75
2023-01-02T10:44:48.309Z,10.10
2023-01-02T10:47:22.775Z,9.45
2023-01-02T10:49:52.944Z,10.00
2023-01-02T10:52:29.985Z,10.38
2023-01-02T10:55:00.523Z,12.27
2023-01-02T10:57:46.507Z,13.68
2023-01-02T11:00:25.680Z,12.73
2023-01-02T11:02:57.700Z,14.45
2023-01-02T11:05:28.332Z,10.20
2023-01-02T11:07:55.686Z,12.02
2023-01-02T11:10:34.068Z,8.63
2023-01-02T11:13:10.053Z,6.32
2023-01-02T11:15:56.431Z,9.05
2023-01-02T11:18:32.136Z,11.52
2023-01-02T11:23:27.507Z,14.85
2023-01-02T11:25:54.582Z,11.18
2023-01-02T11:28:27.013Z,11.45
2023-01-02T11:31:04.744Z,12.23
2023-01-02T11:33:34.004Z,12.80
2023-01-02T11:36:03.868Z,14.57
2023-01-02T11:38:49.053Z,14.93
2023-01-02T11:41:31.991Z,11.75
2023-01-02T11:43:59.196Z,10.07
2023-01-02T11:46:33.299Z,11.25
2023-01-02T11:49:13.688Z,8.75
2023-01-02T11:51:41.301Z,11.32
2023-01-02T11:54:21.908Z,9.23
2023-01-02T11:56:51.263Z,12.27
2023-01-02T11:59:33.997Z,11.48
2023-01-02T12:02:20.793Z,11.75
2023-01-02T12:07:47.457Z,9.07
2023-01-02T12:10:40.010Z,9.07
2023-01-02T12:13:31.771Z,11.27
2023-01-02T12:16:16.833Z,9.80
2023-01-02T12:18:56.541Z,12.93
2023-01-02T12:21:26.205Z,10.80
2023-01-02T12:24:30.751Z,12.77
2023-01-02T12:27:01.827Z,10.48
2023-01-02T12:29:46.063Z,13.75
2023-01-02T12:32:25.188Z,14.57
2023-01-02T12:35:10.909Z,9.13
2023-01-02T12:37:48.652Z,13.60
2023-01-02T12:40:29.588Z,10.10
2023-01-02T12:43:35.558Z,9.18
2023-01-02T12:46:17.225Z,13.60
2023-01-02T12:49:16.060Z,11.00
2023-01-02T12:52:21.012Z,8.52
2023-01-02T12:55:11.064Z,10.93
2023-01-02T12:58:00.583Z,13.73
2023-01-02T13:00:45.789Z,8.20
2023-01-02T13:03:43.431Z,13.30
2023-01-02T13:06:43.383Z,10.25
2023-01-02T13:09:40.474Z,12.27
2023-01-02T13:12:12.503Z,13.85
2023-01-02T13:15:02.843Z,9.82
2023-01-02T13:17:41.934Z,12.20
2023-01-02T13:20:39.460Z,10.38
2023-01-02T13:23:24.244Z,11.20
2023-01-02T13:25:56.178Z,15.38
2023-01-02T13:28:25.974Z,11.50
2023-01-02T13:33:57.360Z,10.75
2023-01-02T13:36:38.465Z,9.02
2023-01-02T13:39:22.708Z,14.38
2023-01-02T13:42:04.248Z,11.98
2023-01-02T13:44:40.953Z,10.73
2023-01-02T13:47:25.905Z,9.70
2023-01-02T13:50:38.155Z,9.45
2023-01-02T13:53:11.134Z,10.07
2023-01-02T13:55:40.992Z,11.43
2023-01-02T13:58:15.282Z,11.40
2023-01-02T14:00:53.901Z,9.73
2023-01-02T14:03:25.849Z,10.23
2023-01-02T14:05:58.995Z,12.85
2023-01-02T14:08:40.760Z,13.32
2023-01-02T14:11:17.345Z,11.18
2023-01-02T14:13:45.832Z,15.80
2023-01-02T14:16:26.506Z,15.93
2023-01-02T14:19:14.920Z,9.95
2023-01-02T14:21:52.938Z,13.98
2023-01-02T14:24:46.666Z,12.43
2023-01-02T14:27:16.143Z,11.82
2023-01-02T14:29:52.514Z,15.45
2023-01-02T14:32:26.641Z,13.55
2023-01-02T14:34:56.686Z,13.77
2023-01-02T14:37:47.996Z,18.30
2023-01-02T14:40:17.441Z,12.25
2023-01-02T14:42:46.283Z,17.70
2023-01-02T14:45:18.499Z,15.25
2023-01-02T14:48:09.653Z,13.57
2023-01-02T14:50:41.219Z,9.25
2023-01-02T14:53:32.345Z,14.10
2023-01-02T14:56:05.095Z,12.68
2023-01-02T14:58:36.966Z,13.38
2023-01-02T15:01:05.100Z,14.77
2023-01-02T15:03:48.198Z,16.25
2023-01-02T15:06:36.607Z,14.93
2023-01-02T15:09:11.129Z,19.85
2023-01-02T15:11:37.957Z,15.30
2023-01-02T15:14:06.706Z,11.20
2023-01-02T15:16:42.725Z,12.00
2023-01-02T15:19:17.396Z,14.82
2023-01-02T15:24:25.556Z,11.80
2023-01-02T15:26:52.945Z,11.75
2023-01-02T15:29:29.533Z,10.27
2023-01-02T15:32:00.824Z,12.20
2023-01-02T15:34:30.909Z,13.57
2023-01-02T15:37:03.013Z,11.75
2023-01-02T15:39:39.463Z,12.13
2023-01-02T15:42:12.120Z,14.57
2023-01-02T15:44:39.744Z,10.35
2023-01-02T15:47:08.739Z,9.05
2023-01-02T15:49:41.252Z,7.70
2023-01-02T15:52:27.338Z,10.07
2023-01-02T15:57:29.893Z,7.38
2023-01-02T15:59:56.904Z,6.22
2023-01-02T16:02:40.786Z,3.55
2023-01-02T16:05:15.395Z,5.15
2023-01-02T16:07:48.801Z,2.90
2023-01-02T16:10:25.781Z,3.22
2023-01-02T16:13:04.974Z,4.65
2023-01-02T16:15:35.091Z,5.07
2023-01-02T16:18:03.064Z,6.22
2023-01-02T16:20:30.311Z,5.47
2023-01-02T16:23:05.944Z,3.38
2023-01-02T16:28:35.486Z,4.38
2023-01-02T16:31:21.052Z,3.25
2023-01-02T16:33:48.016Z,2.30
2023-01-02T16:36:14.857Z,2.65
2023-01-02T16:38:50.477Z,3.63
2023-01-02T16:41:29.491Z,2.78
2023-01-02T16:43:56.239Z,3.55
2023-01-02T16:46:22.969Z,3.92
2023-01-02T16:48:49.735Z,4.40
2023-01-02T16:51:22.734Z,3.40
2023-01-02T16:53:49.851Z,3.70
2023-01-02T16:56:17.416Z,2.88
2023-01-02T16:58:44.478Z,4.20
2023-01-02T17:01:15.354Z,2.70
2023-01-02T17:03:42.367Z,4.10
2023-01-02T17:06:15.904Z,5.10
2023-01-02T17:08:42.765Z,3.78
2023-01-02T17:11:15.064Z,2.13
2023-01-02T17:13:41.733Z,4.30
2023-01-02T17:16:08.524Z,3.75
2023-01-02T17:18:35.637Z,1.88
2023-01-02T17:21:02.868Z,2.90
2023-01-02T17:23:30.714Z,2.97
2023-01-02T17:25:57.535Z,1.25
2023-01-02T17:28:24.587Z,1.80
2023-01-02T17:30:51.957Z,2.15
2023-01-02T17:33:23.557Z,0.82
2023-01-02T17:35:50.734Z,2.85
2023-01-02T17:38:18.349Z,2.72
2023-01-02T17:40:45.630Z,1.30
2023-01-02T17:43:14.007Z,1.50
2023-01-02T17:45:42.212Z,1.55
2023-01-02T17:48:13.391Z,1.98
2023-01-02T17:50:42.040Z,2.67
2023-01-02T17:53:10.079Z,2.60
2023-01-02T17:55:37.090Z,1.08
2023-01-02T17:58:06.160Z,2.83
2023-01-02T18:00:33.008Z,0.63
2023-01-02T18:02:59.931Z,1.35
2023-01-02T18:05:26.861Z,2.20
2023-01-02T18:07:54.701Z,2.65
2023-01-02T18:10:24.804Z,4.53
2023-01-02T18:12:56.162Z,1.88
2023-01-02T18:15:23.262Z,1.73
2023-01-02T18:17:50.132Z,0.98
2023-01-02T18:20:19.869Z,1.83
2023-01-02T18:22:49.949Z,1.23
2023-01-02T18:25:21.426Z,1.92
2023-01-02T18:27:48.518Z,2.45
2023-01-02T18:30:24.138Z,2.20
2023-01-02T18:33:00.019Z,1.20
2023-01-02T18:38:18.389Z,3.15
2023-01-02T18:40:45.692Z,1.45
2023-01-02T18:43:31.313Z,1.25
2023-01-02T18:46:00.263Z,1.25
2023-01-02T18:48:27.500Z,1.48
2023-01-02T18:51:00.209Z,1.45
2023-01-02T18:53:34.371Z,1.92
2023-01-02T18:56:11.240Z,1.00
2023-01-02T18:59:04.144Z,1.75
2023-01-02T19:01:35.462Z,1.30
2023-01-02T19:04:24.086Z,1.20
2023-01-02T19:06:56.436Z,1.35
2023-01-02T19:09:41.369Z,2.70
2023-01-02T19:12:14.127Z,1.65
2023-01-02T19:14:43.037Z,1.40
2023-01-02T19:17:23.909Z,3.15
2023-01-02T19:19:50.653Z,3.63
2023-01-02T19:22:21.020Z,2.65
2023-01-02T19:24:47.963Z,2.42
2023-01-02T19:27:34.811Z,1.30
2023-01-02T19:30:25.654Z,1.35
2023-01-02T19:32:52.888Z,1.50
2023-01-02T19:35:25.618Z,2.42
2023-01-02T19:37:52.337Z,1.30
2023-01-02T19:40:23.266Z,1.38
2023-01-02T19:42:51.617Z,1.73
2023-01-02T19:45:23.887Z,2.03
2023-01-02T19:47:52.093Z,1.15
2023-01-02T19:50:25.299Z,2.80
2023-01-02T19:52:52.484Z,1.05
2023-01-02T19:55:19.827Z,1.40
2023-01-02T19:57:47.340Z,1.15
2023-01-02T20:00:16.759Z,2.33
2023-01-02T20:02:44.404Z,1.67
2023-01-02T20:05:14.823Z,0.80
2023-01-02T20:07:44.636Z,1.73
2023-01-02T20:10:11.890Z,2.03
2023-01-02T20:12:39.225Z,1.92
2023-01-02T20:15:22.853Z,1.33
2023-01-02T20:17:50.533Z,1.30
2023-01-02T20:20:19.945Z,1.92
2023-01-02T20:22:47.555Z,1.48
2023-01-02T20:25:15.615Z,2.85
2023-01-02T20:27:42.400Z,1.27
2023-01-02T20:30:10.873Z,1.00
2023-01-02T20:32:37.614Z,2.38
2023-01-02T20:35:04.892Z,1.45
2023-01-02T20:37:31.556Z,1.23
2023-01-02T20:39:58.583Z,1.92
2023-01-02T20:42:25.534Z,2.78
2023-01-02T20:44:52.389Z,2.53
2023-01-02T20:47:19.536Z,3.03
2023-01-02T20:49:46.259Z,2.20
2023-01-02T20:52:13.020Z,2.97
2023-01-02T20:54:39.922Z,3.00
2023-01-02T20:57:06.686Z,1.67
2023-01-02T20:59:33.408Z,2.97
2023-01-02T21:02:00.214Z,1.77
2023-01-02T21:04:34.244Z,3.28
2023-01-02T21:07:03.470Z,4.55
2023-01-02T21:09:30.140Z,3.65
2023-01-02T21:11:56.905Z,2.05
2023-01-02T21:14:23.628Z,2.28
2023-01-02T21:16:50.363Z,1.92
2023-01-02T21:19:17.124Z,1.23
2023-01-02T21:21:43.881Z,2.28
2023-01-02T21:24:10.626Z,2.67
2023-01-02T21:26:37.370Z,2.97
2023-01-02T21:29:04.112Z,2.83
2023-01-02T21:31:30.864Z,3.15
2023-01-02T21:33:57.597Z,3.05
2023-01-02T21:36:24.266Z,2.38
2023-01-02T21:38:50.991Z,4.70
2023-01-02T21:41:17.686Z,2.38
2023-01-02T21:43:44.875Z,4.22
2023-01-02T21:46:11.945Z,4.38
2023-01-02T21:48:38.742Z,3.85
2023-01-02T21:51:06.434Z,5.13
2023-01-02T21:53:33.348Z,3.80
2023-01-02T21:56:00.152Z,4.18
2023-01-02T21:58:26.911Z,4.57
2023-01-02T22:00:53.843Z,4.03
2023-01-02T22:03:20.691Z,5.75
2023-01-02T22:05:47.534Z,3.65
2023-01-02T22:08:14.185Z,6.38
2023-01-02T22:10:40.874Z,3.20
2023-01-02T22:13:07.653Z,7.65
2023-01-02T22:15:34.356Z,3.08
2023-01-02T22:18:01.055Z,3.30
2023-01-02T22:20:27.810Z,7.32
2023-01-02T22:22:54.455Z,5.82
2023-01-02T22:25:21.163Z,5.10
2023-01-02T22:27:47.866Z,4.25
2023-01-02T22:30:34.615Z,4.65
2023-01-02T22:33:01.736Z,7.65
2023-01-02T22:35:28.570Z,4.90
2023-01-02T22:37:55.240Z,4.13
2023-01-02T22:40:22.006Z,6.53
2023-01-02T22:43:00.305Z,6.57
2023-01-02T22:45:36.958Z,5.65
2023-01-02T22:48:07.539Z,4.25
2023-01-02T22:50:42.487Z,4.75
2023-01-02T22:53:21.789Z,5.53
2023-01-02T22:55:49.673Z,4.85
2023-01-02T22:58:16.799Z,5.43
2023-01-02T23:00:49.308Z,5.03
2023-01-02T23:03:16.804Z,5.35
2023-01-02T23:05:43.579Z,6.85
2023-01-02T23:08:10.308Z,8.30
2023-01-02T23:10:37.511Z,6.07
2023-01-02T23:13:04.165Z,5.10
2023-01-02T23:15:30.869Z,7.00
2023-01-02T23:17:57.538Z,6.78
2023-01-02T23:20:25.296Z,7.18
2023-01-02T23:22:52.069Z,7.22
2023-01-02T23:25:18.814Z,8.20
2023-01-02T23:27:45.487Z,6.82
2023-01-02T23:30:12.739Z,6.00
2023-01-02T23:32:39.423Z,7.15
2023-01-02T23:35:06.792Z,8.90
2023-01-02T23:37:33.474Z,5.80
2023-01-02T23:40:00.207Z,6.80
2023-01-02T23:42:26.932Z,5.85
2023-01-02T23:44:53.577Z,6.22
2023-01-02T23:47:20.291Z,6.55
2023-01-02T23:49:46.943Z,11.10
2023-01-02T23:52:13.611Z,12.13
2023-01-02T23:54:40.365Z,7.00
2023-01-02T23:57:07.037Z,7.90
2023-01-02T23:59:33.756Z,6.65
